Time;durP1;ratioP1;P1;durP2;ratioP2;P2;SDS_P1;SDS_P2;PMS_P1;PMS_P2;Temp;Humidity;BMP_temperature;BMP_pressure;BME280_temperature;BME280_humidity;BME280_pressure;Samples;Min_cycle;Max_cycle;Signal;HPM_P1;HPM_P2
2021/11/30 00:02:00;;;;;;;17.42;9.43;;;3.90;99.90;;;4.34;100.00;99962.53;5055526;28;20458;-79
2021/11/30 00:04:29;;;;;;;17.08;9.48;;;3.90;99.90;;;4.35;100.00;99953.13;5055232;28;20500;-78
2021/11/30 00:07:01;;;;;;;15.98;9.63;;;3.90;99.90;;;4.35;100.00;99956.69;5037329;28;20021;-78
2021/11/30 00:12:23;;;;;;;17.95;10.70;;;4.00;99.90;;;4.33;100.00;99958.19;5054731;28;20519;-77
2021/11/30 00:14:53;;;;;;;19.40;10.93;;;4.00;99.90;;;4.33;100.00;99953.47;5054598;28;20104;-75
2021/11/30 00:17:21;;;;;;;20.15;11.05;;;4.00;99.90;;;4.31;100.00;99952.97;5054822;28;20036;-75
2021/11/30 00:19:51;;;;;;;23.80;11.60;;;3.90;99.90;;;4.34;100.00;99949.53;5054251;28;20106;-78
2021/11/30 00:22:23;;;;;;;25.80;12.85;;;3.90;99.90;;;4.29;100.00;99946.16;5036918;28;20132;-76
2021/11/30 00:24:53;;;;;;;28.08;11.70;;;3.90;99.90;;;4.30;100.00;99943.06;5055035;28;20029;-77
2021/11/30 00:27:20;;;;;;;26.70;12.65;;;3.90;99.90;;;4.25;100.00;99943.25;5053752;28;20403;-78
2021/11/30 00:29:46;;;;;;;24.48;12.85;;;3.90;99.90;;;4.29;100.00;99943.38;5037254;28;20429;-77
2021/11/30 00:32:12;;;;;;;24.50;12.05;;;3.90;99.90;;;4.24;100.00;99953.50;5054758;28;20021;-77
2021/11/30 00:34:38;;;;;;;26.75;12.93;;;3.90;99.90;;;4.24;100.00;99953.50;5054840;28;20048;-76
2021/11/30 00:37:10;;;;;;;21.65;11.07;;;3.90;99.90;;;4.24;100.00;99952.66;5037404;28;20374;-76
2021/11/30 00:39:36;;;;;;;22.88;12.30;;;3.80;99.90;;;4.28;100.00;99939.81;5053205;28;20063;-79
2021/11/30 00:42:03;;;;;;;25.02;12.00;;;3.80;99.90;;;4.28;100.00;99941.75;5037878;28;20116;-77
2021/11/30 00:44:35;;;;;;;16.85;11.05;;;3.80;99.90;;;4.25;100.00;99944.06;5055670;28;20025;-79
2021/11/30 00:47:02;;;;;;;25.27;11.30;;;3.90;99.90;;;4.18;100.00;99943.75;5054504;28;20074;-78
2021/11/30 00:49:28;;;;;;;22.65;11.95;;;3.90;99.90;;;4.23;100.00;99946.34;5054712;28;20519;-76
2021/11/30 00:51:58;;;;;;;26.98;10.75;;;3.80;99.90;;;4.24;100.00;99930.56;5035906;28;20029;-77
2021/11/30 00:54:27;;;;;;;26.52;10.98;;;3.80;99.90;;;4.17;100.00;99925.56;5054469;28;20037;-77
2021/11/30 00:56:56;;;;;;;21.92;10.95;;;3.80;99.90;;;4.23;100.00;99918.72;5054380;28;20268;-76
2021/11/30 00:59:27;;;;;;;24.90;10.65;;;3.80;99.90;;;4.15;100.00;99918.75;5053326;28;20080;-77
2021/11/30 01:01:57;;;;;;;16.15;10.25;;;3.80;99.90;;;4.21;100.00;99920.16;5053566;28;20021;-77
2021/11/30 01:04:23;;;;;;;20.80;9.18;;;3.80;99.90;;;4.16;100.00;99918.44;5054045;28;20047;-78
2021/11/30 01:06:52;;;;;;;18.30;8.32;;;3.80;99.90;;;4.19;100.00;99922.47;5054181;28;20426;-79
2021/11/30 01:09:18;;;;;;;17.77;8.77;;;3.80;99.90;;;4.14;100.00;99903.31;5054871;28;20610;-78
2021/11/30 01:11:45;;;;;;;17.40;8.90;;;3.80;99.90;;;4.21;100.00;99920.97;5035983;28;20064;-78
2021/11/30 01:14:11;;;;;;;16.40;8.85;;;3.80;99.90;;;4.16;100.00;99921.19;5053980;28;20399;-76
2021/11/30 01:16:37;;;;;;;17.77;8.77;;;3.80;99.90;;;4.17;100.00;99899.91;5036003;28;20450;-77
2021/11/30 01:19:06;;;;;;;14.70;8.60;;;3.80;99.90;;;4.18;100.00;99913.38;5053387;28;20132;-76
2021/11/30 01:21:36;;;;;;;18.27;9.27;;;3.80;99.90;;;4.18;100.00;99912.53;5053444;28;20029;-78
2021/11/30 01:24:12;;;;;;;16.10;9.43;;;3.80;99.90;;;4.06;100.00;99901.41;5054085;28;20025;-79
2021/11/30 01:26:38;;;;;;;14.95;8.50;;;3.80;99.90;;;4.17;100.00;99911.72;5052045;28;20029;-78
2021/11/30 01:29:07;;;;;;;16.95;8.32;;;3.80;99.90;;;4.16;100.00;99914.84;5053250;28;20033;-78
2021/11/30 01:31:33;;;;;;;16.48;8.07;;;3.80;99.90;;;4.12;100.00;99911.13;5053631;28;20366;-79
2021/11/30 01:34:04;;;;;;;16.77;9.38;;;3.80;99.90;;;4.19;100.00;99909.47;5053856;28;20025;-78
2021/11/30 01:36:30;;;;;;;15.82;9.30;;;3.80;99.90;;;4.17;100.00;99917.25;5054194;28;20041;-78
2021/11/30 01:39:00;;;;;;;19.77;9.50;;;3.80;99.90;;;4.20;100.00;99904.75;5054254;28;20112;-78
2021/11/30 01:41:32;;;;;;;21.38;10.35;;;3.80;99.90;;;4.14;100.00;99897.81;5035597;28;20029;-78
2021/11/30 01:44:05;;;;;;;17.40;8.90;;;3.80;99.90;;;4.09;100.00;99884.16;5053245;28;20025;-78
2021/11/30 01:51:59;;;;;;;18.45;9.10;;;3.70;99.90;;;4.05;100.00;99877.66;5053162;28;20036;-78
2021/11/30 01:54:25;;;;;;;16.05;9.95;;;3.70;99.90;;;4.02;100.00;99889.38;5052537;28;20035;-78
2021/11/30 01:56:56;;;;;;;16.42;9.57;;;3.70;99.90;;;3.99;100.00;99870.72;5052451;28;20036;-76
2021/11/30 01:59:23;;;;;;;16.17;9.35;;;3.70;99.90;;;4.03;100.00;99855.09;5034456;28;20033;-78
2021/11/30 02:01:50;;;;;;;14.65;9.60;;;3.70;99.90;;;4.00;100.00;99858.53;5052218;28;20543;-77
2021/11/30 02:04:19;;;;;;;16.50;8.60;;;3.70;99.90;;;4.04;100.00;99851.19;5051749;28;20025;-75
2021/11/30 02:06:45;;;;;;;17.60;8.75;;;3.70;99.90;;;4.10;100.00;99852.63;5034092;28;20027;-76
2021/11/30 02:09:11;;;;;;;16.60;8.38;;;3.70;99.90;;;4.14;100.00;99859.09;5034235;28;20029;-75
2021/11/30 02:11:40;;;;;;;17.27;8.55;;;3.80;99.90;;;4.09;100.00;99856.53;5051914;28;20061;-75
2021/11/30 02:14:06;;;;;;;16.08;7.63;;;3.80;99.90;;;4.13;100.00;99855.53;5052405;28;20033;-77
2021/11/30 02:16:32;;;;;;;16.25;7.55;;;3.70;99.90;;;4.14;100.00;99848.06;5052033;28;20082;-77
2021/11/30 02:19:01;;;;;;;20.17;7.40;;;3.70;99.90;;;4.25;100.00;99843.75;5051913;28;20043;-76
2021/11/30 02:21:34;;;;;;;20.55;8.82;;;3.80;99.90;;;4.06;100.00;99838.66;5042503;28;20021;-76
2021/11/30 02:24:01;;;;;;;17.52;7.32;;;3.70;99.90;;;4.06;100.00;99827.59;5032371;28;20025;-77
2021/11/30 02:26:34;;;;;;;24.70;8.15;;;3.70;99.90;;;4.14;100.00;99834.25;5014869;28;20063;-75
2021/11/30 02:29:04;;;;;;;17.17;7.10;;;3.70;99.90;;;3.97;100.00;99824.09;5014520;28;20374;-77
2021/11/30 02:31:41;;;;;;;17.13;7.85;;;3.70;99.90;;;3.91;100.00;99824.63;5055983;23;20408;-83
2021/11/30 02:34:07;;;;;;;14.15;6.55;;;3.70;99.90;;;3.85;100.00;99815.72;5038748;28;20037;-79
2021/11/30 02:39:18;;;;;;;12.45;6.30;;;3.50;99.90;;;3.72;100.00;99798.22;5056142;28;20033;-80
2021/11/30 02:41:46;;;;;;;17.48;6.93;;;3.40;99.90;;;3.59;100.00;99785.47;5036191;28;20021;-82
2021/11/30 02:44:19;;;;;;;13.07;6.72;;;3.40;99.90;;;3.51;100.00;99791.03;5022260;28;20433;-83
2021/11/30 02:46:59;;;;;;;12.40;5.70;;;3.30;99.90;;;3.47;100.00;99773.50;5049243;28;20026;-78
2021/11/30 02:49:34;;;;;;;11.00;6.20;;;3.20;99.90;;;3.50;100.00;99772.88;5042092;28;20072;-85
2021/11/30 02:52:10;;;;;;;13.45;5.93;;;3.20;99.90;;;3.45;100.00;99764.75;5048618;28;20041;-81
2021/11/30 02:54:43;;;;;;;13.35;6.15;;;3.10;99.90;;;3.35;100.00;99762.34;5042069;28;20029;-83
2021/11/30 02:57:17;;;;;;;19.45;7.05;;;3.10;99.90;;;3.37;100.00;99763.63;5046174;28;20033;-85
2021/11/30 02:59:49;;;;;;;15.30;6.28;;;3.00;99.90;;;3.28;100.00;99762.06;5047324;28;20030;-80
2021/11/30 03:02:29;;;;;;;19.67;7.57;;;3.00;99.90;;;3.23;100.00;99752.03;5048528;28;20025;-83
2021/11/30 03:05:00;;;;;;;14.85;6.93;;;3.00;99.90;;;3.14;100.00;99740.22;5043570;28;20037;-83
2021/11/30 03:07:37;;;;;;;19.58;7.20;;;2.90;99.90;;;2.99;100.00;99718.69;5023251;28;20068;-81
2021/11/30 03:10:19;;;;;;;19.40;7.95;;;2.80;99.90;;;3.03;100.00;99719.66;5042543;28;20495;-80
2021/11/30 03:12:52;;;;;;;17.70;7.13;;;2.80;99.90;;;3.05;100.00;99725.66;5040253;28;20082;-82
2021/11/30 03:15:24;;;;;;;21.65;7.20;;;2.70;99.90;;;2.97;100.00;99690.63;5048202;28;20485;-83
2021/11/30 03:17:54;;;;;;;18.10;6.88;;;2.70;99.90;;;2.89;100.00;99700.53;5038451;28;20029;-80
2021/11/30 03:20:23;;;;;;;19.10;7.50;;;2.60;99.90;;;2.87;100.00;99693.75;5024516;28;20033;-80
2021/11/30 03:22:49;;;;;;;15.00;6.80;;;2.60;99.90;;;2.80;100.00;99677.72;5037047;28;20037;-79
2021/11/30 03:25:21;;;;;;;19.88;7.70;;;2.50;99.90;;;2.78;100.00;99676.44;5036738;28;20468;-83
2021/11/30 03:27:48;;;;;;;17.48;6.93;;;2.50;99.90;;;2.74;100.00;99665.25;5037428;28;20024;-80
2021/11/30 03:30:20;;;;;;;21.05;7.28;;;2.50;99.90;;;2.65;100.00;99654.25;5038599;28;20029;-79
2021/11/30 03:35:30;;;;;;;16.17;7.25;;;2.40;99.90;;;2.65;100.00;99653.44;5041605;28;20040;-83
2021/11/30 03:37:56;;;;;;;16.58;7.80;;;2.40;99.90;;;2.65;100.00;99654.25;5044691;28;20026;-82
2021/11/30 03:40:22;;;;;;;14.68;6.43;;;2.40;99.90;;;2.59;100.00;99652.00;5047755;28;20045;-86
2021/11/30 03:42:48;;;;;;;19.73;7.53;;;2.30;99.90;;;2.59;100.00;99649.25;5032317;28;20041;-84
2021/11/30 03:45:20;;;;;;;16.88;6.72;;;2.30;99.90;;;2.46;100.00;99634.53;5043049;28;20037;-81
2021/11/30 03:47:49;;;;;;;15.50;6.65;;;2.30;99.90;;;2.54;100.00;99625.44;5043154;28;20037;-81
2021/11/30 03:50:16;;;;;;;17.95;7.70;;;2.30;99.90;;;2.47;100.00;99616.84;5044042;28;20044;-81
2021/11/30 03:52:42;;;;;;;19.67;7.35;;;2.30;99.90;;;2.46;100.00;99607.00;5041927;28;20037;-81
2021/11/30 03:55:11;;;;;;;14.23;7.10;;;2.20;99.90;;;2.49;100.00;99611.84;5029685;28;20049;-81
2021/11/30 03:57:40;;;;;;;10.60;6.20;;;2.20;99.90;;;2.52;100.00;99602.91;5044600;28;20033;-84
2021/11/30 04:00:10;;;;;;;11.38;6.05;;;2.20;99.90;;;2.43;100.00;99598.56;5027333;28;20143;-81
2021/11/30 04:02:40;;;;;;;11.10;6.13;;;2.20;99.90;;;2.41;100.00;99601.63;5024986;28;20035;-84
2021/11/30 04:05:09;;;;;;;12.45;5.97;;;2.20;99.90;;;2.40;100.00;99597.28;5008178;28;20030;-84
2021/11/30 04:07:35;;;;;;;9.63;5.97;;;2.20;99.90;;;2.43;100.00;99595.81;5029801;28;20014;-80
2021/11/30 04:10:03;;;;;;;10.23;5.75;;;2.20;99.90;;;2.48;100.00;99603.88;5036184;28;20034;-80
2021/11/30 04:12:33;;;;;;;10.65;5.30;;;2.20;99.90;;;2.49;100.00;99597.25;5027075;28;20034;-83
2021/11/30 04:14:59;;;;;;;10.27;5.63;;;2.30;99.90;;;2.54;100.00;99592.34;5024392;28;20098;-82
2021/11/30 04:17:27;;;;;;;8.10;4.80;;;2.30;99.90;;;2.57;100.00;99593.63;5020341;28;20030;-83
2021/11/30 04:19:54;;;;;;;7.70;4.28;;;2.30;99.90;;;2.61;100.00;99589.91;5020255;28;20041;-84
2021/11/30 04:22:23;;;;;;;7.32;5.13;;;2.30;99.90;;;2.63;100.00;99584.06;5020245;28;20034;-79
2021/11/30 04:24:49;;;;;;;7.60;4.25;;;2.40;99.90;;;2.66;100.00;99567.63;5020862;28;20038;-80
2021/11/30 04:27:21;;;;;;;7.00;4.45;;;2.40;99.90;;;2.69;100.00;99568.94;5019458;28;20038;-82
2021/11/30 04:29:47;;;;;;;5.50;4.03;;;2.40;99.90;;;2.68;100.00;99559.06;5021724;28;20096;-83
2021/11/30 04:32:14;;;;;;;5.78;3.67;;;2.40;99.90;;;2.81;100.00;99560.78;5020584;28;20050;-83
2021/11/30 04:34:43;;;;;;;7.70;3.67;;;2.50;99.90;;;2.82;100.00;99558.81;5020776;28;20030;-81
2021/11/30 04:37:11;;;;;;;3.53;2.97;;;2.50;99.90;;;2.85;100.00;99547.94;5028682;28;20029;-80
2021/11/30 04:39:37;;;;;;;4.65;3.40;;;2.60;99.90;;;2.81;100.00;99546.16;5023639;28;20034;-80
2021/11/30 04:42:03;;;;;;;9.80;4.35;;;2.60;99.90;;;2.86;100.00;99538.50;5020184;28;20382;-79
2021/11/30 04:44:34;;;;;;;7.03;3.60;;;2.70;99.90;;;2.97;100.00;99536.19;5020939;28;20037;-80
2021/11/30 04:47:05;;;;;;;5.28;3.05;;;2.70;99.90;;;3.05;100.00;99538.88;5020591;28;20037;-82
2021/11/30 04:51:59;;;;;;;4.57;3.63;;;2.80;99.90;;;3.17;100.00;99538.16;5021722;28;20041;-83
2021/11/30 04:54:25;;;;;;;4.18;2.80;;;2.90;99.90;;;3.26;100.00;99533.38;5003757;28;20080;-79
2021/11/30 04:56:53;;;;;;;4.47;2.97;;;3.00;99.90;;;3.31;100.00;99529.59;5018687;28;20036;-79
2021/11/30 04:59:21;;;;;;;4.75;3.00;;;3.00;99.90;;;3.36;100.00;99510.88;5020660;28;20033;-80
2021/11/30 05:01:48;;;;;;;4.32;3.20;;;3.10;99.90;;;3.44;100.00;99509.19;5022517;28;20040;-78
2021/11/30 05:04:16;;;;;;;6.32;3.03;;;3.20;99.90;;;3.44;100.00;99522.97;5022394;28;20037;-79
2021/11/30 05:06:44;;;;;;;6.05;3.28;;;3.20;99.90;;;3.53;100.00;99507.16;5019883;28;20030;-85
2021/11/30 05:09:10;;;;;;;7.03;4.03;;;3.20;99.90;;;3.58;100.00;99521.56;5022276;28;20080;-84
2021/11/30 05:11:40;;;;;;;4.78;3.58;;;3.30;99.90;;;3.67;100.00;99515.94;5021029;28;20030;-84
2021/11/30 05:14:06;;;;;;;5.65;4.18;;;3.30;99.90;;;3.73;100.00;99506.31;5020638;28;20034;-83
2021/11/30 05:16:33;;;;;;;5.88;3.83;;;3.40;99.90;;;3.78;100.00;99495.06;5004810;28;20037;-83
2021/11/30 05:18:59;;;;;;;6.57;3.88;;;3.40;99.90;;;3.79;100.00;99501.41;5021070;28;20038;-78
2021/11/30 05:21:27;;;;;;;5.00;3.78;;;3.50;99.90;;;3.80;100.00;99489.19;5032448;28;20036;-81
2021/11/30 05:24:01;;;;;;;6.32;4.90;;;3.50;99.90;;;3.93;100.00;99497.16;5041294;28;20112;-83
2021/11/30 05:26:28;;;;;;;6.50;4.72;;;3.60;99.90;;;4.03;100.00;99487.63;5046254;28;20029;-83
2021/11/30 05:29:00;;;;;;;6.75;5.20;;;3.60;99.90;;;4.00;100.00;99478.06;5047108;28;20025;-82
2021/11/30 05:31:26;;;;;;;7.75;5.57;;;3.70;99.90;;;4.11;100.00;99482.00;5025764;28;20025;-81
2021/11/30 05:33:52;;;;;;;9.48;5.78;;;3.70;99.90;;;4.13;100.00;99468.66;5044531;28;20085;-82
2021/11/30 05:36:20;;;;;;;7.57;5.32;;;3.80;99.90;;;4.26;100.00;99475.00;5041312;28;20063;-82
2021/11/30 05:38:52;;;;;;;8.30;6.03;;;3.80;99.90;;;4.22;100.00;99469.34;5021662;28;20116;-83
2021/11/30 05:41:21;;;;;;;7.70;5.78;;;3.90;99.90;;;4.30;100.00;99470.41;5040194;28;20477;-82
2021/11/30 05:43:47;;;;;;;7.32;5.53;;;3.90;99.90;;;4.27;100.00;99462.78;5043994;28;20037;-82
2021/11/30 05:46:13;;;;;;;7.00;5.38;;;3.90;99.90;;;4.33;100.00;99469.72;5045432;28;20083;-82
2021/11/30 05:48:39;;;;;;;7.72;5.95;;;4.00;99.90;;;4.32;100.00;99459.78;5044385;28;20106;-80
2021/11/30 05:51:09;;;;;;;8.18;5.95;;;4.00;99.90;;;4.40;100.00;99467.16;5029446;28;20030;-81
2021/11/30 05:53:35;;;;;;;9.13;5.60;;;4.00;99.90;;;4.40;100.00;99469.13;5045367;28;20045;-80
2021/11/30 05:56:08;;;;;;;7.53;6.07;;;4.00;99.90;;;4.44;100.00;99454.25;5046104;28;20025;-82
2021/11/30 05:58:41;;;;;;;6.10;5.00;;;4.10;99.90;;;4.53;100.00;99467.94;5044535;28;20026;-81
2021/11/30 06:01:15;;;;;;;6.55;5.68;;;4.10;99.90;;;4.58;100.00;99462.22;5044200;28;20076;-80
2021/11/30 06:03:56;;;;;;;7.00;5.35;;;4.20;99.90;;;4.71;100.00;99456.31;5028188;28;20057;-81
2021/11/30 06:06:48;;;;;;;7.10;5.07;;;4.20;99.90;;;4.67;100.00;99452.63;5044141;28;20033;-81
2021/11/30 06:09:14;;;;;;;8.27;5.07;;;4.30;99.90;;;4.68;100.00;99447.91;5026411;28;20091;-82
2021/11/30 06:11:40;;;;;;;8.55;5.63;;;4.30;99.90;;;4.70;100.00;99451.94;5046101;28;20086;-82
2021/11/30 06:14:09;;;;;;;6.97;5.47;;;4.30;99.90;;;4.63;100.00;99450.91;5048470;28;20033;-81
2021/11/30 06:16:36;;;;;;;7.05;5.10;;;4.30;99.90;;;4.66;100.00;99444.66;5028460;28;20096;-82
2021/11/30 06:19:02;;;;;;;7.03;5.32;;;4.30;99.90;;;4.74;100.00;99433.50;5032206;28;20044;-81
2021/11/30 06:21:28;;;;;;;7.00;5.65;;;4.40;99.90;;;4.73;100.00;99434.63;5030857;28;20018;-78
2021/11/30 06:23:54;;;;;;;6.18;4.90;;;4.40;99.90;;;4.81;100.00;99445.94;5033784;28;20040;-80
2021/11/30 06:26:20;;;;;;;7.32;4.53;;;4.40;99.90;;;4.84;100.00;99439.69;5048062;28;20032;-82
2021/11/30 06:28:49;;;;;;;5.03;3.92;;;4.40;99.90;;;4.89;100.00;99443.03;5049161;28;20049;-82
2021/11/30 06:31:17;;;;;;;4.15;3.55;;;4.50;99.90;;;4.92;100.00;99427.69;5049156;28;20032;-84
2021/11/30 06:33:43;;;;;;;4.60;3.92;;;4.50;99.90;;;5.01;100.00;99436.66;5050367;28;20033;-84
2021/11/30 06:36:09;;;;;;;3.88;3.25;;;4.50;99.90;;;5.08;100.00;99448.72;5051151;28;20033;-84
2021/11/30 06:38:39;;;;;;;8.38;3.97;;;4.60;99.90;;;5.10;100.00;99429.84;5051347;28;20026;-81
2021/11/30 06:41:05;;;;;;;3.95;3.38;;;4.60;99.90;;;5.15;100.00;99437.06;5052492;28;20064;-82
2021/11/30 06:43:34;;;;;;;5.07;3.60;;;4.60;99.90;;;5.20;100.00;99429.31;5035310;28;20022;-81
2021/11/30 06:46:00;;;;;;;4.03;3.13;;;4.60;99.90;;;5.17;100.00;99427.25;5049595;28;20029;-81
2021/11/30 06:48:27;;;;;;;4.18;3.35;;;4.70;99.90;;;5.19;100.00;99432.44;5050916;28;20029;-79
2021/11/30 06:50:53;;;;;;;3.40;2.92;;;4.70;99.90;;;5.24;100.00;99421.09;5051469;28;20022;-80
2021/11/30 06:53:24;;;;;;;4.93;3.25;;;4.80;99.90;;;5.25;100.00;99428.25;5049782;28;20033;-82
2021/11/30 06:55:50;;;;;;;4.80;4.00;;;4.80;99.90;;;5.28;100.00;99422.03;5048259;28;20022;-82
2021/11/30 06:58:16;;;;;;;4.78;3.50;;;4.80;99.90;;;5.38;100.00;99418.75;5048528;28;20036;-79
2021/11/30 07:00:42;;;;;;;4.18;3.28;;;4.90;99.90;;;5.35;100.00;99422.22;5049157;28;20033;-80
2021/11/30 07:03:14;;;;;;;3.45;2.90;;;4.80;99.90;;;5.33;100.00;99419.78;5047962;28;20025;-84
2021/11/30 07:05:42;;;;;;;6.10;3.33;;;4.90;99.90;;;5.42;100.00;99411.34;5048379;28;20109;-83
2021/11/30 07:11:06;;;;;;;5.45;3.13;;;5.00;99.90;;;5.47;100.00;99407.50;5046646;28;20397;-80
2021/11/30 07:13:35;;;;;;;4.22;3.10;;;5.10;99.90;;;5.54;100.00;99408.50;5046756;28;20037;-79
2021/11/30 07:16:06;;;;;;;4.47;3.63;;;5.10;99.90;;;5.57;100.00;99410.56;5049907;28;20049;-80
2021/11/30 07:18:35;;;;;;;3.92;3.30;;;5.10;99.90;;;5.60;100.00;99409.06;5050349;28;20025;-82
2021/11/30 07:21:03;;;;;;;5.93;4.03;;;5.10;99.90;;;5.64;100.00;99401.66;5049057;28;20029;-84
2021/11/30 07:23:30;;;;;;;5.47;3.85;;;5.10;99.90;;;5.67;100.00;99390.66;5045588;28;20048;-82
2021/11/30 07:26:05;;;;;;;4.60;3.63;;;5.20;99.90;;;5.68;100.00;99405.31;5046987;28;20104;-82
2021/11/30 07:28:33;;;;;;;5.32;3.90;;;5.20;99.90;;;5.83;100.00;99402.56;5050957;28;20029;-80
2021/11/30 07:31:11;;;;;;;5.00;4.30;;;5.30;99.90;;;5.80;100.00;99397.75;5032669;28;20037;-83
2021/11/30 07:33:44;;;;;;;5.97;4.07;;;5.30;99.90;;;5.90;100.00;99409.47;5049481;28;20041;-81
2021/11/30 07:36:25;;;;;;;7.28;4.45;;;5.40;99.90;;;5.88;100.00;99398.75;5044134;28;20030;-82
2021/11/30 07:38:51;;;;;;;5.43;4.22;;;5.40;99.90;;;5.91;100.00;99388.94;5047203;28;20356;-83
2021/11/30 07:41:26;;;;;;;5.90;4.90;;;5.40;99.90;;;5.92;100.00;99394.09;5029814;28;20021;-79
2021/11/30 07:43:52;;;;;;;6.30;4.72;;;5.40;99.90;;;6.00;100.00;99404.22;5047181;28;20036;-79
2021/11/30 07:46:18;;;;;;;6.25;4.70;;;5.50;99.90;;;6.04;100.00;99398.75;5052804;28;20030;-78
2021/11/30 07:48:50;;;;;;;8.13;6.25;;;5.60;99.90;;;6.15;100.00;99411.72;5041249;28;20037;-75
2021/11/30 07:51:17;;;;;;;8.05;5.00;;;5.50;99.90;;;6.20;100.00;99410.63;5040439;28;20524;-80
2021/11/30 07:53:52;;;;;;;6.60;5.30;;;5.60;99.90;;;6.22;100.00;99411.91;5050653;28;20029;-81
2021/11/30 07:56:19;;;;;;;7.50;6.13;;;5.70;99.90;;;6.21;100.00;99415.00;5050801;28;20029;-81
2021/11/30 07:58:45;;;;;;;8.50;6.50;;;5.70;99.90;;;6.28;100.00;99415.19;5052878;28;20076;-78
2021/11/30 08:01:12;;;;;;;11.15;6.93;;;5.70;99.90;;;6.32;100.00;99407.78;5051999;28;20034;-80
2021/11/30 08:03:39;;;;;;;9.18;7.50;;;5.80;99.90;;;6.39;100.00;99413.47;5052359;28;20049;-83
2021/11/30 08:06:05;;;;;;;10.32;8.40;;;5.80;99.90;;;6.41;100.00;99405.59;5051068;28;20086;-80
2021/11/30 08:08:32;;;;;;;12.55;8.80;;;5.90;99.90;;;6.46;100.00;99401.75;5054007;28;20034;-81
2021/11/30 08:10:58;;;;;;;11.45;8.75;;;5.90;99.90;;;6.51;100.00;99407.84;5054393;28;20033;-80
2021/11/30 08:13:24;;;;;;;12.00;9.43;;;5.90;99.90;;;6.59;100.00;99409.59;5054436;28;20026;-80
2021/11/30 08:15:50;;;;;;;13.73;9.57;;;6.00;99.90;;;6.62;100.00;99413.59;5054709;28;20139;-81
2021/11/30 08:18:16;;;;;;;11.95;9.38;;;6.10;99.90;;;6.60;100.00;99404.84;5050530;28;20085;-77
2021/11/30 08:20:42;;;;;;;13.75;10.48;;;6.10;99.90;;;6.63;100.00;99409.66;5049332;28;20030;-82
2021/11/30 08:23:08;;;;;;;13.90;10.50;;;6.20;99.90;;;6.70;100.00;99416.19;5014473;28;20056;-78
2021/11/30 08:25:34;;;;;;;14.20;10.73;;;6.10;99.90;;;6.73;100.00;99398.00;5015825;28;20014;-79
2021/11/30 08:28:04;;;;;;;15.65;11.38;;;6.20;99.90;;;6.83;100.00;99405.78;5016018;28;20049;-77
2021/11/30 08:30:30;;;;;;;14.82;10.20;;;6.20;99.90;;;6.86;100.00;99397.53;5032529;28;20037;-79
2021/11/30 08:32:58;;;;;;;13.73;10.57;;;6.30;99.90;;;6.80;100.00;99392.63;5051641;23;20037;-87
2021/11/30 08:35:24;;;;;;;14.13;10.48;;;6.30;99.90;;;6.92;100.00;99389.72;5041552;28;20044;-84
2021/11/30 08:38:12;;;;;;;12.90;10.00;;;6.40;99.90;;;6.88;100.00;99386.84;5026036;28;20033;-89
2021/11/30 08:40:40;;;;;;;13.90;10.68;;;6.40;99.90;;;6.99;100.00;99398.19;5020340;28;20056;-85
2021/11/30 08:43:07;;;;;;;13.88;10.25;;;6.50;99.90;;;7.10;100.00;99390.06;5005866;28;20037;-83
2021/11/30 08:45:33;;;;;;;13.25;10.02;;;6.50;99.90;;;7.03;100.00;99385.16;5022828;28;20135;-86
2021/11/30 08:48:00;;;;;;;12.13;9.68;;;6.50;99.90;;;7.08;100.00;99389.63;5026807;28;20248;-86
2021/11/30 08:50:27;;;;;;;11.25;8.93;;;6.60;99.90;;;7.15;100.00;99385.03;5031488;28;20029;-84
2021/11/30 08:52:53;;;;;;;9.98;8.23;;;6.60;99.90;;;7.17;100.00;99376.34;5025913;28;20040;-86
2021/11/30 08:55:21;;;;;;;9.50;7.78;;;6.60;99.90;;;7.18;100.00;99375.19;5022242;28;20021;-87
2021/11/30 08:57:48;;;;;;;10.68;7.82;;;6.70;99.90;;;7.34;100.00;99378.66;5022767;28;20076;-85
2021/11/30 09:00:25;;;;;;;9.40;6.95;;;6.70;99.90;;;7.33;100.00;99382.59;5020758;28;20116;-86
2021/11/30 09:02:53;;;;;;;11.95;8.57;;;6.70;99.90;;;7.38;100.00;99368.44;5022778;28;20355;-84
2021/11/30 09:05:21;;;;;;;9.93;6.53;;;6.80;99.90;;;7.46;100.00;99386.03;5019778;28;20022;-84
2021/11/30 09:07:50;;;;;;;7.03;6.20;;;6.80;99.90;;;7.51;100.00;99377.41;5022739;28;20026;-87
2021/11/30 09:10:18;;;;;;;9.10;6.55;;;6.90;99.90;;;7.52;100.00;99388.13;5021046;28;20493;-86
2021/11/30 09:12:44;;;;;;;6.97;5.38;;;6.90;99.90;;;7.42;100.00;99383.97;5020644;28;20044;-87
2021/11/30 09:15:11;;;;;;;7.30;5.40;;;6.90;99.90;;;7.45;100.00;99379.66;5019858;28;20033;-85
2021/11/30 09:17:37;;;;;;;8.57;5.95;;;6.90;99.90;;;7.56;100.00;99379.88;5019949;28;20119;-86
2021/11/30 09:20:08;;;;;;;9.75;5.22;;;7.00;99.90;;;7.62;100.00;99389.50;5020714;28;20029;-85
2021/11/30 09:22:35;;;;;;;6.13;4.68;;;7.00;99.90;;;7.72;100.00;99377.78;5018682;28;20033;-86
2021/11/30 09:25:07;;;;;;;5.20;4.43;;;7.00;99.90;;;7.76;100.00;99381.44;5020099;28;20029;-85
2021/11/30 09:27:33;;;;;;;7.57;5.10;;;7.10;99.90;;;7.78;100.00;99382.69;5020463;28;20131;-85
2021/11/30 09:30:05;;;;;;;6.63;3.97;;;7.10;99.90;;;7.73;100.00;99377.44;5018368;28;20112;-83
2021/11/30 09:32:31;;;;;;;4.45;4.05;;;7.20;99.90;;;7.69;100.00;99384.09;5034930;28;20037;-86
2021/11/30 09:35:01;;;;;;;5.32;4.00;;;7.10;99.90;;;7.74;100.00;99381.00;5035013;28;20036;-84
2021/11/30 09:37:29;;;;;;;6.38;4.07;;;7.20;99.90;;;7.80;100.00;99369.19;5018962;28;20037;-86
2021/11/30 09:39:58;;;;;;;10.52;3.92;;;7.30;99.90;;;7.78;100.00;99368.78;5021760;28;20029;-86
2021/11/30 09:42:24;;;;;;;6.45;5.13;;;7.30;99.90;;;7.79;100.00;99373.16;5040696;28;20095;-87
2021/11/30 09:44:50;;;;;;;12.23;7.10;;;7.30;99.90;;;7.89;100.00;99380.91;5027981;28;20025;-86
2021/11/30 09:47:17;;;;;;;7.07;5.00;;;7.30;99.90;;;7.87;100.00;99371.31;5028483;28;20026;-85
2021/11/30 09:49:46;;;;;;;7.47;4.72;;;7.30;99.90;;;7.94;100.00;99372.22;5022793;28;20033;-83
2021/11/30 09:52:12;;;;;;;8.98;4.47;;;7.30;99.90;;;7.94;100.00;99369.47;5019297;28;20036;-84
2021/11/30 09:54:38;;;;;;;9.98;3.95;;;7.40;99.90;;;8.04;100.00;99356.09;5018679;28;20025;-84
2021/11/30 09:57:04;;;;;;;5.85;3.80;;;7.40;99.90;;;8.03;100.00;99365.63;5018797;28;20041;-85
2021/11/30 09:59:30;;;;;;;8.07;4.00;;;7.40;99.90;;;8.10;100.00;99374.06;5037137;28;20521;-86
2021/11/30 10:01:58;;;;;;;6.45;4.15;;;7.40;99.90;;;8.06;100.00;99359.31;5018683;28;20400;-85
2021/11/30 10:04:24;;;;;;;8.68;4.38;;;7.40;99.90;;;8.01;100.00;99360.44;5018757;28;20029;-85
2021/11/30 10:06:50;;;;;;;7.38;4.28;;;7.50;99.90;;;8.14;100.00;99380.50;5019090;28;20496;-84
2021/11/30 10:09:24;;;;;;;6.93;4.35;;;7.40;99.90;;;8.05;100.00;99363.28;5020308;28;20033;-85
2021/11/30 10:12:09;;;;;;;7.45;4.50;;;7.50;99.90;;;7.96;100.00;99355.97;5020856;28;20029;-85
2021/11/30 10:14:40;;;;;;;9.18;5.43;;;7.50;99.90;;;8.10;100.00;99357.38;5021184;28;20056;-86
2021/11/30 10:17:26;;;;;;;6.20;4.95;;;7.50;99.90;;;8.05;100.00;99358.53;5038587;28;20029;-84
2021/11/30 10:20:11;;;;;;;;;;;7.50;99.90;;;8.15;100.00;99371.00;5018054;28;20026;-85
2021/11/30 10:22:54;;;;;;;6.72;5.03;;;7.50;99.90;;;8.10;100.00;99365.72;5029607;28;19917;-86
2021/11/30 10:25:35;;;;;;;7.60;4.88;;;7.50;99.90;;;8.26;100.00;99363.59;5021776;28;20029;-87
2021/11/30 10:28:11;;;;;;;6.78;4.90;;;7.60;99.90;;;8.24;100.00;99358.44;5020243;28;20100;-83
2021/11/30 10:30:41;;;;;;;;;;;7.60;99.90;;;8.20;100.00;99368.69;5020012;28;20026;-85
2021/11/30 10:33:15;;;;;;;5.47;4.05;;;7.60;99.90;;;8.07;100.00;99349.78;5019971;28;19913;-85
2021/11/30 10:35:42;;;;;;;5.07;4.10;;;7.60;99.90;;;8.16;100.00;99353.09;5036117;28;20033;-85
2021/11/30 10:38:08;;;;;;;6.57;4.15;;;7.70;99.90;;;8.21;100.00;99358.38;5018861;28;20040;-85
2021/11/30 10:40:40;;;;;;;5.40;4.15;;;7.70;99.90;;;8.14;100.00;99358.25;5019333;28;20545;-86
2021/11/30 10:43:11;;;;;;;4.72;3.88;;;7.70;99.90;;;8.17;100.00;99335.25;5019179;28;20088;-85
2021/11/30 10:45:48;;;;;;;5.43;4.00;;;7.70;99.90;;;8.25;100.00;99350.91;5020071;28;20025;-85
2021/11/30 10:48:24;;;;;;;4.25;3.45;;;7.70;99.90;;;8.29;100.00;99363.69;5020753;28;20025;-85
2021/11/30 10:50:57;;;;;;;3.53;3.22;;;7.70;99.90;;;8.50;100.00;99351.28;5019623;28;20148;-86